createdAt,value
2023-02-14T00:00:07.086Z,64.38
2023-02-14T00:02:38.741Z,64.09
2023-02-14T00:05:08.165Z,62.84
2023-02-14T00:07:36.957Z,63.12
2023-02-14T00:10:06.684Z,62.95
2023-02-14T00:12:35.524Z,61.11
2023-02-14T00:15:21.811Z,60.95
2023-02-14T00:17:53.105Z,61.82
2023-02-14T00:20:22.426Z,61.67
2023-02-14T00:22:51.350Z,61.59
2023-02-14T00:25:20.236Z,61.47
2023-02-14T00:27:49.100Z,61.74
2023-02-14T00:30:18.259Z,61.79
2023-02-14T00:32:47.257Z,62.23
2023-02-14T00:35:17.661Z,61.66
2023-02-14T00:37:47.852Z,63.52
2023-02-14T00:40:16.732Z,63.07
2023-02-14T00:42:45.570Z,63.20
2023-02-14T00:45:19.045Z,63.69
2023-02-14T00:47:47.965Z,63.31
2023-02-14T00:50:18.472Z,63.71
2023-02-14T00:52:47.311Z,64.10
2023-02-14T00:55:16.225Z,65.74
2023-02-14T00:57:45.132Z,64.82
2023-02-14T01:00:15.234Z,63.95
2023-02-14T01:02:44.107Z,63.97
2023-02-14T01:05:13.044Z,63.44
2023-02-14T01:07:43.338Z,64.62
2023-02-14T01:10:12.858Z,64.12
2023-02-14T01:12:41.776Z,63.95
2023-02-14T01:15:11.148Z,64.29
2023-02-14T01:17:39.944Z,65.95
2023-02-14T01:20:10.398Z,67.42
2023-02-14T01:22:39.940Z,66.36
2023-02-14T01:25:10.308Z,65.47
2023-02-14T01:27:39.177Z,64.72
2023-02-14T01:30:09.494Z,64.77
2023-02-14T01:32:38.370Z,64.75
2023-02-14T01:35:07.694Z,65.14
2023-02-14T01:37:37.212Z,64.57
2023-02-14T01:40:08.289Z,63.55
2023-02-14T01:42:38.773Z,64.55
2023-02-14T01:45:15.861Z,67.03
2023-02-14T01:47:47.935Z,69.29
2023-02-14T01:50:23.633Z,69.44
2023-02-14T01:52:56.350Z,68.24
2023-02-14T01:55:29.087Z,69.46
2023-02-14T01:58:03.209Z,70.49
2023-02-14T02:00:49.260Z,70.29
2023-02-14T02:03:20.560Z,69.48
2023-02-14T02:05:52.827Z,69.05
2023-02-14T02:08:21.789Z,67.74
2023-02-14T02:10:50.773Z,67.22
2023-02-14T02:13:23.891Z,69.23
2023-02-14T02:16:27.498Z,68.56
2023-02-14T02:19:09.937Z,71.29
2023-02-14T02:22:14.225Z,72.88
2023-02-14T02:24:52.324Z,72.27
2023-02-14T02:27:33.090Z,69.50
2023-02-14T02:30:50.115Z,68.66
2023-02-14T02:34:04.700Z,69.28
2023-02-14T02:36:48.923Z,69.71
2023-02-14T02:39:31.145Z,71.42
2023-02-14T02:42:08.085Z,70.76
2023-02-14T02:44:50.780Z,71.18
2023-02-14T02:47:28.770Z,71.34
2023-02-14T02:50:22.661Z,71.96
2023-02-14T02:53:06.507Z,70.72
2023-02-14T02:56:03.439Z,70.13
2023-02-14T02:58:37.346Z,71.94
2023-02-14T03:01:11.442Z,69.29
2023-02-14T03:04:00.078Z,72.57
2023-02-14T03:06:31.385Z,72.29
2023-02-14T03:09:14.640Z,70.50
2023-02-14T03:11:57.373Z,72.10
2023-02-14T03:14:32.071Z,71.74
2023-02-14T03:17:04.888Z,72.50
2023-02-14T03:20:14.327Z,70.26
2023-02-14T03:22:51.547Z,70.71
2023-02-14T03:25:32.508Z,69.21
2023-02-14T03:28:12.260Z,67.54
2023-02-14T03:30:51.470Z,68.69
2023-02-14T03:33:29.050Z,68.01
2023-02-14T03:36:03.330Z,70.65
2023-02-14T03:38:33.887Z,69.02
2023-02-14T03:41:10.425Z,68.27
2023-02-14T03:43:45.347Z,67.28
2023-02-14T03:46:19.275Z,70.70
2023-02-14T03:48:50.989Z,71.49
2023-02-14T03:51:22.399Z,71.05
2023-02-14T03:53:55.023Z,70.66
2023-02-14T03:56:30.995Z,69.42
2023-02-14T03:59:06.350Z,69.33
2023-02-14T04:01:40.309Z,67.83
2023-02-14T04:04:10.831Z,69.98
2023-02-14T04:06:39.730Z,68.44
2023-02-14T04:09:08.586Z,72.00
2023-02-14T04:11:38.913Z,72.14
2023-02-14T04:14:07.899Z,71.06
2023-02-14T04:16:56.879Z,70.67
2023-02-14T04:19:24.700Z,70.51
2023-02-14T04:21:54.285Z,70.12
2023-02-14T04:24:23.080Z,69.39
2023-02-14T04:27:12.324Z,69.70
2023-02-14T04:29:44.811Z,66.40
2023-02-14T04:32:16.315Z,67.84
2023-02-14T04:34:45.271Z,69.60
2023-02-14T04:37:15.286Z,70.52
2023-02-14T04:39:44.081Z,68.03
2023-02-14T04:42:14.279Z,68.70
2023-02-14T04:44:43.287Z,67.97
2023-02-14T04:47:12.158Z,67.33
2023-02-14T04:49:41.185Z,67.00
2023-02-14T04:52:10.131Z,69.69
2023-02-14T04:54:39.039Z,69.01
2023-02-14T04:57:07.815Z,68.79
2023-02-14T04:59:38.048Z,70.01
2023-02-14T05:02:07.043Z,69.68
2023-02-14T05:04:36.071Z,68.86
2023-02-14T05:07:05.062Z,68.34
2023-02-14T05:09:33.964Z,66.33
2023-02-14T05:12:03.241Z,66.91
2023-02-14T05:14:32.151Z,66.92
2023-02-14T05:17:02.493Z,69.26
2023-02-14T05:19:31.396Z,67.57
2023-02-14T05:22:00.186Z,67.61
2023-02-14T05:24:30.039Z,70.44
2023-02-14T05:26:58.821Z,67.44
2023-02-14T05:29:27.914Z,66.50
2023-02-14T05:31:56.748Z,66.45
2023-02-14T05:34:27.059Z,66.54
2023-02-14T05:36:56.147Z,68.32
2023-02-14T05:39:25.008Z,67.67
2023-02-14T05:41:53.811Z,67.35
2023-02-14T05:44:22.750Z,66.56
2023-02-14T05:46:51.639Z,66.13
2023-02-14T05:49:20.553Z,64.73
2023-02-14T05:51:51.087Z,65.46
2023-02-14T05:54:19.895Z,67.98
2023-02-14T05:56:48.687Z,66.39
2023-02-14T05:59:17.688Z,67.58
2023-02-14T06:01:46.524Z,69.39
2023-02-14T06:04:15.367Z,68.99
2023-02-14T06:06:44.259Z,68.25
2023-02-14T06:09:14.969Z,67.42
2023-02-14T06:11:43.826Z,68.00
2023-02-14T06:14:12.661Z,67.33
2023-02-14T06:16:41.544Z,67.68
2023-02-14T06:19:10.403Z,67.07
2023-02-14T06:21:39.251Z,68.03
2023-02-14T06:24:08.286Z,66.61
2023-02-14T06:26:38.451Z,67.63
2023-02-14T06:29:07.543Z,65.17
2023-02-14T06:31:37.159Z,65.56
2023-02-14T06:34:06.009Z,64.79
2023-02-14T06:36:34.943Z,62.53
2023-02-14T06:39:03.891Z,63.78
2023-02-14T06:41:32.733Z,62.71
2023-02-14T06:44:03.252Z,60.59
2023-02-14T06:46:32.116Z,59.11
2023-02-14T06:49:00.972Z,59.48
2023-02-14T06:51:29.905Z,60.67
2023-02-14T06:53:58.775Z,58.78
2023-02-14T06:56:27.715Z,60.28
2023-02-14T06:58:56.544Z,59.70
2023-02-14T07:01:26.813Z,57.15
2023-02-14T07:03:55.638Z,55.92
2023-02-14T07:06:24.454Z,54.49
2023-02-14T07:08:53.268Z,55.42
2023-02-14T07:11:22.048Z,54.77
2023-02-14T07:13:50.943Z,53.34
2023-02-14T07:16:19.795Z,52.25
2023-02-14T07:18:50.350Z,51.01
2023-02-14T07:21:19.232Z,51.08
2023-02-14T07:23:50.073Z,49.54
2023-02-14T07:26:19.508Z,50.17
2023-02-14T07:28:49.911Z,48.72
2023-02-14T07:31:19.969Z,48.01
2023-02-14T07:33:50.554Z,47.63
2023-02-14T07:36:20.404Z,47.61
2023-02-14T07:38:49.311Z,52.96
2023-02-14T07:41:18.183Z,53.91
2023-02-14T07:43:47.069Z,53.21
2023-02-14T07:46:17.558Z,50.94
2023-02-14T07:48:46.520Z,50.97
2023-02-14T07:51:16.779Z,52.87
2023-02-14T07:53:45.624Z,50.05
2023-02-14T07:56:14.472Z,51.96
2023-02-14T07:58:43.358Z,57.82
2023-02-14T08:01:12.145Z,56.14
2023-02-14T08:03:41.013Z,55.10
2023-02-14T08:06:09.979Z,52.20
2023-02-14T08:08:40.207Z,49.27
2023-02-14T08:11:09.203Z,46.91
2023-02-14T08:13:38.064Z,45.95
2023-02-14T08:16:07.685Z,44.95
2023-02-14T08:18:39.233Z,45.29
2023-02-14T08:21:10.598Z,47.26
2023-02-14T08:23:40.758Z,51.52
2023-02-14T08:26:09.700Z,54.34
2023-02-14T08:28:38.723Z,55.89
2023-02-14T08:31:07.991Z,55.67
2023-02-14T08:33:36.906Z,48.67
2023-02-14T08:36:06.480Z,48.61
2023-02-14T08:38:35.366Z,49.85
2023-02-14T08:41:08.604Z,52.06
2023-02-14T08:43:38.175Z,51.62
2023-02-14T08:46:07.062Z,49.84
2023-02-14T08:48:39.380Z,50.24
2023-02-14T08:51:08.856Z,45.80
2023-02-14T08:53:38.224Z,42.93
2023-02-14T08:56:11.023Z,41.66
2023-02-14T08:58:40.505Z,41.20
2023-02-14T09:01:10.172Z,38.89
2023-02-14T09:03:39.612Z,36.25
2023-02-14T09:06:10.121Z,36.77
2023-02-14T09:08:40.616Z,39.28
2023-02-14T09:11:12.814Z,39.64
2023-02-14T09:13:41.979Z,39.65
2023-02-14T09:16:13.027Z,38.27
2023-02-14T09:18:41.968Z,37.47
2023-02-14T09:21:14.730Z,37.10
2023-02-14T09:23:43.912Z,39.09
2023-02-14T09:26:16.236Z,38.90
2023-02-14T09:28:45.717Z,39.46
2023-02-14T09:31:16.477Z,38.68
2023-02-14T09:33:46.617Z,37.25
2023-02-14T09:36:32.634Z,37.91
2023-02-14T09:39:02.099Z,36.76
2023-02-14T09:42:09.665Z,35.50
2023-02-14T09:44:41.183Z,37.69
2023-02-14T09:47:18.675Z,37.12
2023-02-14T09:49:48.949Z,37.86
2023-02-14T09:52:20.851Z,38.66
2023-02-14T09:54:55.488Z,35.34
2023-02-14T09:57:35.834Z,34.42
2023-02-14T10:00:16.290Z,33.96
2023-02-14T10:02:57.113Z,38.13
2023-02-14T10:05:29.678Z,36.25
2023-02-14T10:08:06.062Z,36.61
2023-02-14T10:10:40.032Z,36.64
2023-02-14T10:13:18.018Z,35.45
2023-02-14T10:15:49.770Z,35.98
2023-02-14T10:18:23.354Z,35.38
2023-02-14T10:20:55.492Z,34.11
2023-02-14T10:23:31.586Z,35.00
2023-02-14T10:26:03.379Z,34.16
2023-02-14T10:28:36.134Z,33.01
2023-02-14T10:31:22.645Z,32.22
2023-02-14T10:33:57.679Z,32.17
2023-02-14T10:36:41.455Z,33.21
2023-02-14T10:39:33.475Z,37.15
2023-02-14T10:42:12.702Z,34.81
2023-02-14T10:44:49.275Z,33.72
2023-02-14T10:47:32.704Z,33.68
2023-02-14T10:50:12.208Z,37.95
2023-02-14T10:52:49.846Z,36.36
2023-02-14T10:55:32.322Z,34.25
2023-02-14T10:58:07.382Z,35.89
2023-02-14T11:00:42.313Z,34.40
2023-02-14T11:03:15.276Z,33.09
2023-02-14T11:05:47.028Z,33.66
2023-02-14T11:08:20.202Z,33.64
2023-02-14T11:10:49.620Z,34.19
2023-02-14T11:13:29.595Z,33.71
2023-02-14T11:16:03.529Z,32.32
2023-02-14T11:18:35.983Z,32.39
2023-02-14T11:21:08.193Z,31.80
2023-02-14T11:23:39.481Z,31.55
2023-02-14T11:26:15.362Z,30.43
2023-02-14T11:28:52.602Z,30.90
2023-02-14T11:31:32.146Z,31.40
2023-02-14T11:34:05.055Z,31.50
2023-02-14T11:36:42.185Z,31.36
2023-02-14T11:39:24.530Z,32.67
2023-02-14T11:41:55.572Z,32.08
2023-02-14T11:44:27.070Z,33.67
2023-02-14T11:46:59.103Z,34.42
2023-02-14T11:49:33.475Z,35.54
2023-02-14T11:52:10.583Z,35.11
2023-02-14T11:54:41.328Z,33.60
2023-02-14T11:57:14.889Z,33.06
2023-02-14T11:59:46.451Z,32.79
2023-02-14T12:02:33.082Z,32.27
2023-02-14T12:05:05.256Z,33.25
2023-02-14T12:07:37.495Z,33.38
2023-02-14T12:10:17.044Z,31.47
2023-02-14T12:13:01.168Z,31.73
2023-02-14T12:15:38.020Z,31.67
2023-02-14T12:18:36.933Z,31.43
2023-02-14T12:21:18.592Z,31.40
2023-02-14T12:23:56.411Z,32.03
2023-02-14T12:26:29.922Z,31.93
2023-02-14T12:29:06.989Z,32.51
2023-02-14T12:31:35.995Z,33.04
2023-02-14T12:34:06.383Z,33.08
2023-02-14T12:37:08.131Z,33.35
2023-02-14T12:39:44.334Z,34.33
2023-02-14T12:42:30.037Z,35.93
2023-02-14T12:45:03.701Z,36.10
2023-02-14T12:47:45.402Z,36.38
2023-02-14T12:50:39.103Z,37.34
2023-02-14T12:53:30.537Z,38.43
2023-02-14T12:56:11.905Z,38.65
2023-02-14T12:58:55.100Z,39.34
2023-02-14T13:01:42.731Z,38.89
2023-02-14T13:04:29.978Z,38.62
2023-02-14T13:07:06.882Z,39.11
2023-02-14T13:09:42.239Z,39.11
2023-02-14T13:12:31.048Z,39.08
2023-02-14T13:15:12.955Z,38.62
2023-02-14T13:17:48.260Z,39.81
2023-02-14T13:20:43.670Z,39.46
2023-02-14T13:23:19.397Z,39.96
2023-02-14T13:25:53.094Z,41.13
2023-02-14T13:28:23.194Z,41.13
2023-02-14T13:30:52.466Z,41.89
2023-02-14T13:33:34.068Z,39.35
2023-02-14T13:36:08.834Z,40.77
2023-02-14T13:38:45.016Z,41.67
2023-02-14T13:41:16.557Z,41.46
2023-02-14T13:43:50.530Z,42.45
2023-02-14T13:46:22.319Z,43.82
2023-02-14T13:49:02.156Z,43.54
2023-02-14T13:51:48.547Z,42.62
2023-02-14T13:54:34.745Z,41.68
2023-02-14T13:57:25.527Z,41.26
2023-02-14T14:00:33.044Z,43.99
2023-02-14T14:03:02.047Z,43.79
2023-02-14T14:06:01.226Z,45.97
2023-02-14T14:08:45.599Z,46.14
2023-02-14T14:11:49.778Z,44.89
2023-02-14T14:14:39.985Z,45.01
2023-02-14T14:17:25.971Z,43.81
2023-02-14T14:19:55.203Z,43.62
2023-02-14T14:22:24.151Z,43.24
2023-02-14T14:24:59.502Z,43.47
2023-02-14T14:27:33.164Z,43.14
2023-02-14T14:30:06.164Z,44.70
2023-02-14T14:32:36.756Z,43.58
2023-02-14T14:35:08.313Z,43.89
2023-02-14T14:37:46.439Z,42.85
2023-02-14T14:40:24.990Z,42.10
2023-02-14T14:42:55.434Z,42.73
2023-02-14T14:45:28.241Z,42.37
2023-02-14T14:47:59.361Z,42.21
2023-02-14T14:50:30.256Z,44.21
2023-02-14T14:53:02.916Z,44.67
2023-02-14T14:55:35.418Z,41.85
2023-02-14T14:58:06.835Z,42.17
2023-02-14T15:00:38.724Z,43.12
2023-02-14T15:03:15.856Z,43.43
2023-02-14T15:05:47.050Z,42.79
2023-02-14T15:08:17.788Z,41.37
2023-02-14T15:10:50.953Z,40.22
2023-02-14T15:13:37.428Z,41.47
2023-02-14T15:16:08.756Z,43.67
2023-02-14T15:18:37.600Z,42.86
2023-02-14T15:21:07.517Z,43.34
2023-02-14T15:23:36.558Z,45.01
2023-02-14T15:26:05.436Z,44.36
2023-02-14T15:28:35.920Z,43.43
2023-02-14T15:31:08.090Z,43.34
2023-02-14T15:33:37.574Z,44.73
2023-02-14T15:36:15.551Z,44.37
2023-02-14T15:38:44.475Z,45.13
2023-02-14T15:41:15.127Z,44.21
2023-02-14T15:43:44.376Z,44.61
2023-02-14T15:46:27.239Z,44.77
2023-02-14T15:49:00.825Z,44.68
2023-02-14T15:51:32.790Z,44.48
2023-02-14T15:54:04.678Z,45.52
2023-02-14T15:56:38.098Z,46.42
2023-02-14T15:59:09.023Z,45.28
2023-02-14T16:01:40.295Z,44.91
2023-02-14T16:04:09.196Z,44.51
2023-02-14T16:06:40.032Z,44.93
2023-02-14T16:09:25.949Z,44.73
2023-02-14T16:11:54.986Z,45.44
2023-02-14T16:14:32.614Z,46.04
2023-02-14T16:17:04.600Z,45.43
2023-02-14T16:19:39.415Z,45.28
2023-02-14T16:22:10.265Z,46.05
2023-02-14T16:24:39.098Z,45.60
2023-02-14T16:27:13.334Z,45.08
2023-02-14T16:29:42.177Z,43.81
2023-02-14T16:32:16.629Z,43.76
2023-02-14T16:34:48.265Z,45.12
2023-02-14T16:37:23.622Z,45.39
2023-02-14T16:39:56.606Z,46.43
2023-02-14T16:42:25.921Z,46.68
2023-02-14T16:44:54.827Z,46.64
2023-02-14T16:47:27.861Z,47.07
2023-02-14T16:49:56.804Z,46.10
2023-02-14T16:52:30.640Z,46.38
2023-02-14T16:54:59.461Z,46.68
2023-02-14T16:57:32.030Z,47.17
2023-02-14T17:00:00.868Z,46.34
2023-02-14T17:02:31.099Z,44.73
2023-02-14T17:05:00.027Z,45.74
2023-02-14T17:07:32.003Z,44.95
2023-02-14T17:10:04.690Z,45.38
2023-02-14T17:12:38.067Z,45.61
2023-02-14T17:15:11.864Z,45.81
2023-02-14T17:17:43.237Z,45.23
2023-02-14T17:20:13.937Z,45.61
2023-02-14T17:22:43.334Z,45.57
2023-02-14T17:25:12.476Z,45.82
2023-02-14T17:27:43.991Z,46.20
2023-02-14T17:30:14.418Z,46.71
2023-02-14T17:32:45.058Z,45.59
2023-02-14T17:35:14.574Z,45.83
2023-02-14T17:37:43.741Z,45.53
2023-02-14T17:40:14.594Z,45.80
2023-02-14T17:42:43.532Z,46.42
2023-02-14T17:45:12.902Z,46.13
2023-02-14T17:47:43.437Z,47.20
2023-02-14T17:50:14.760Z,47.59
2023-02-14T17:52:43.857Z,47.76
2023-02-14T17:55:15.752Z,47.60
2023-02-14T17:57:44.601Z,47.51
2023-02-14T18:00:16.340Z,46.86
2023-02-14T18:02:45.242Z,46.04
2023-02-14T18:05:15.542Z,46.27
2023-02-14T18:07:44.446Z,46.59
2023-02-14T18:10:13.371Z,46.64
2023-02-14T18:12:42.356Z,46.76
2023-02-14T18:15:11.463Z,45.33
2023-02-14T18:17:40.322Z,45.04
2023-02-14T18:20:10.107Z,45.04
2023-02-14T18:22:40.296Z,45.18
2023-02-14T18:25:09.412Z,46.10
2023-02-14T18:27:39.408Z,46.75
2023-02-14T18:30:09.663Z,46.60
2023-02-14T18:32:38.523Z,46.52
2023-02-14T18:35:08.931Z,46.79
2023-02-14T18:37:37.750Z,46.89
2023-02-14T18:40:11.118Z,47.27
2023-02-14T18:42:40.029Z,47.20
2023-02-14T18:45:10.164Z,47.01
2023-02-14T18:47:38.952Z,47.32
2023-02-14T18:50:09.224Z,47.72
2023-02-14T18:52:38.235Z,47.36
2023-02-14T18:55:09.058Z,46.80
2023-02-14T18:57:38.210Z,46.76
2023-02-14T19:00:12.069Z,46.88
2023-02-14T19:02:40.900Z,46.61
2023-02-14T19:05:10.897Z,46.74
2023-02-14T19:07:42.798Z,47.13
2023-02-14T19:10:13.392Z,47.10
2023-02-14T19:12:42.252Z,47.51
2023-02-14T19:15:11.386Z,48.57
2023-02-14T19:17:40.234Z,49.36
2023-02-14T19:20:09.918Z,48.27
2023-02-14T19:22:39.497Z,48.26
2023-02-14T19:25:12.439Z,50.14
2023-02-14T19:27:43.040Z,48.77
2023-02-14T19:30:12.431Z,48.01
2023-02-14T19:32:41.249Z,48.49
2023-02-14T19:35:10.101Z,48.91
2023-02-14T19:37:38.933Z,47.60
2023-02-14T19:40:10.399Z,47.01
2023-02-14T19:42:40.594Z,47.09
2023-02-14T19:45:10.154Z,48.26
2023-02-14T19:47:47.148Z,47.89
2023-02-14T19:50:17.705Z,47.67
2023-02-14T19:52:46.560Z,46.94
2023-02-14T19:55:23.192Z,47.42
2023-02-14T19:57:54.270Z,47.48
2023-02-14T20:00:23.533Z,48.78
2023-02-14T20:02:52.598Z,48.67
2023-02-14T20:05:24.970Z,49.04
2023-02-14T20:07:55.500Z,50.15
2023-02-14T20:10:24.305Z,49.63
2023-02-14T20:12:54.538Z,49.06
2023-02-14T20:15:23.353Z,48.45
2023-02-14T20:17:52.170Z,50.01
2023-02-14T20:20:21.821Z,50.57
2023-02-14T20:22:53.078Z,49.47
2023-02-14T20:25:21.894Z,49.49
2023-02-14T20:27:55.954Z,51.35
2023-02-14T20:30:24.760Z,53.61
2023-02-14T20:32:53.596Z,53.60
2023-02-14T20:35:22.446Z,56.43
2023-02-14T20:37:52.555Z,56.16
2023-02-14T20:40:21.428Z,54.61
2023-02-14T20:42:50.570Z,55.20
2023-02-14T20:45:21.159Z,55.84
2023-02-14T20:47:50.128Z,57.06
2023-02-14T20:50:19.169Z,56.81
2023-02-14T20:52:47.975Z,55.81
2023-02-14T20:55:16.896Z,54.22
2023-02-14T20:57:45.750Z,53.33
2023-02-14T21:00:15.254Z,53.20
2023-02-14T21:02:45.462Z,53.72
2023-02-14T21:05:18.464Z,53.60
2023-02-14T21:07:47.595Z,61.17
2023-02-14T21:10:16.842Z,65.17
2023-02-14T21:12:45.674Z,63.39
2023-02-14T21:15:14.975Z,62.35
2023-02-14T21:17:45.219Z,60.52
2023-02-14T21:20:15.096Z,59.61
2023-02-14T21:22:43.894Z,61.20
2023-02-14T21:25:12.685Z,65.28
2023-02-14T21:27:41.485Z,66.51
2023-02-14T21:30:11.163Z,67.57
2023-02-14T21:32:40.025Z,71.32
2023-02-14T21:35:10.460Z,67.75
2023-02-14T21:37:41.492Z,65.99
2023-02-14T21:40:10.752Z,64.84
2023-02-14T21:42:39.582Z,63.08
2023-02-14T21:45:26.666Z,61.82
2023-02-14T21:48:09.315Z,60.28
2023-02-14T21:50:39.582Z,60.23
2023-02-14T21:53:08.414Z,62.15
2023-02-14T21:55:38.524Z,64.40
2023-02-14T21:58:07.317Z,68.33
2023-02-14T22:00:36.176Z,69.71
2023-02-14T22:03:05.180Z,65.74
2023-02-14T22:05:34.086Z,63.73
2023-02-14T22:08:04.368Z,65.98
2023-02-14T22:10:33.206Z,67.54
2023-02-14T22:13:02.066Z,67.11
2023-02-14T22:15:30.925Z,64.27
2023-02-14T22:17:59.681Z,63.17
2023-02-14T22:20:28.607Z,62.03
2023-02-14T22:22:57.488Z,62.02
2023-02-14T22:25:28.000Z,63.30
2023-02-14T22:27:56.846Z,63.61
2023-02-14T22:30:25.828Z,61.71
2023-02-14T22:32:54.604Z,60.72
2023-02-14T22:35:23.454Z,61.71
2023-02-14T22:37:52.220Z,62.95
2023-02-14T22:40:21.259Z,63.13
2023-02-14T22:42:51.497Z,64.38
2023-02-14T22:45:20.366Z,68.47
2023-02-14T22:47:49.244Z,66.58
2023-02-14T22:50:18.286Z,66.79
2023-02-14T22:52:47.104Z,69.61
2023-02-14T22:55:16.254Z,69.60
2023-02-14T22:57:45.033Z,67.13
2023-02-14T23:00:15.991Z,64.72
2023-02-14T23:02:44.928Z,68.38
2023-02-14T23:05:13.857Z,66.51
2023-02-14T23:07:42.735Z,65.84
2023-02-14T23:10:12.110Z,68.52
2023-02-14T23:12:58.168Z,67.25
2023-02-14T23:15:50.989Z,65.86
2023-02-14T23:18:37.346Z,66.39
2023-02-14T23:21:31.232Z,65.46
2023-02-14T23:24:00.023Z,65.51
2023-02-14T23:26:28.961Z,67.36
2023-02-14T23:28:57.842Z,66.81
2023-02-14T23:31:28.168Z,67.11
2023-02-14T23:33:57.125Z,65.99
2023-02-14T23:36:25.953Z,63.79
2023-02-14T23:38:54.804Z,64.26
2023-02-14T23:41:41.295Z,64.66
2023-02-14T23:44:10.469Z,64.03
2023-02-14T23:46:40.664Z,63.88
2023-02-14T23:49:09.582Z,70.68
2023-02-14T23:51:38.647Z,70.20
2023-02-14T23:54:08.142Z,68.79
2023-02-14T23:56:37.954Z,69.18
2023-02-14T23:59:07.844Z,65.19
